sensor_id;sensor_type;location;lat;lon;timestamp;pressure;altitude;pressure_sealevel;temperature;humidity
37764;BME280;23602;51.084;7.090;2023-03-03T00:02:10;100705.28;;;-0.77;100.00
37764;BME280;23602;51.084;7.090;2023-03-03T00:04:44;100702.50;;;-0.76;100.00
37764;BME280;23602;51.084;7.090;2023-03-03T00:07:17;100707.78;;;-0.76;100.00
37764;BME280;23602;51.084;7.090;2023-03-03T00:09:47;100710.94;;;-0.82;100.00
37764;BME280;23602;51.084;7.090;2023-03-03T00:12:25;100705.91;;;-0.85;100.00
37764;BME280;23602;51.084;7.090;2023-03-03T00:14:51;100706.84;;;-0.86;100.00
37764;BME280;23602;51.084;7.090;2023-03-03T00:17:32;100714.06;;;-0.88;100.00
37764;BME280;23602;51.084;7.090;2023-03-03T00:20:00;100706.16;;;-0.88;100.00
37764;BME280;23602;51.084;7.090;2023-03-03T00:22:30;100707.59;;;-0.95;100.00
37764;BME280;23602;51.084;7.090;2023-03-03T00:25:00;100710.63;;;-0.99;100.00
37764;BME280;23602;51.084;7.090;2023-03-03T00:27:44;100712.28;;;-0.98;100.00
37764;BME280;23602;51.084;7.090;2023-03-03T00:30:16;100721.16;;;-0.99;100.00
37764;BME280;23602;51.084;7.090;2023-03-03T00:32:44;100728.00;;;-0.97;100.00
37764;BME280;23602;51.084;7.090;2023-03-03T00:37:44;100722.34;;;-1.03;100.00
37764;BME280;23602;51.084;7.090;2023-03-03T00:42:57;100721.50;;;-1.37;100.00
37764;BME280;23602;51.084;7.090;2023-03-03T00:45:36;100727.63;;;-1.59;100.00
37764;BME280;23602;51.084;7.090;2023-03-03T00:50:57;100741.00;;;-1.73;100.00
37764;BME280;23602;51.084;7.090;2023-03-03T00:53:23;100746.75;;;-1.79;100.00
37764;BME280;23602;51.084;7.090;2023-03-03T00:55:49;100749.97;;;-1.86;100.00
37764;BME280;23602;51.084;7.090;2023-03-03T00:58:15;100759.44;;;-1.84;100.00
37764;BME280;23602;51.084;7.090;2023-03-03T01:00:40;100757.25;;;-1.90;100.00
37764;BME280;23602;51.084;7.090;2023-03-03T01:03:07;100755.91;;;-1.96;100.00
37764;BME280;23602;51.084;7.090;2023-03-03T01:05:32;100751.34;;;-2.05;100.00
37764;BME280;23602;51.084;7.090;2023-03-03T01:07:58;100760.66;;;-2.12;100.00
37764;BME280;23602;51.084;7.090;2023-03-03T01:10:24;100765.94;;;-2.12;100.00
37764;BME280;23602;51.084;7.090;2023-03-03T01:12:50;100763.38;;;-2.13;100.00
37764;BME280;23602;51.084;7.090;2023-03-03T01:15:16;100765.09;;;-2.12;100.00
37764;BME280;23602;51.084;7.090;2023-03-03T01:17:41;100769.63;;;-2.14;100.00
37764;BME280;23602;51.084;7.090;2023-03-03T01:20:07;100777.13;;;-2.21;100.00
37764;BME280;23602;51.084;7.090;2023-03-03T01:22:33;100788.84;;;-2.25;100.00
37764;BME280;23602;51.084;7.090;2023-03-03T01:24:59;100788.84;;;-2.25;100.00
37764;BME280;23602;51.084;7.090;2023-03-03T01:27:24;100781.78;;;-2.24;100.00
37764;BME280;23602;51.084;7.090;2023-03-03T01:29:49;100780.94;;;-2.25;100.00
37764;BME280;23602;51.084;7.090;2023-03-03T01:32:15;100790.41;;;-2.22;100.00
37764;BME280;23602;51.084;7.090;2023-03-03T01:34:40;100793.59;;;-2.30;100.00
37764;BME280;23602;51.084;7.090;2023-03-03T01:37:06;100785.13;;;-2.22;100.00
37764;BME280;23602;51.084;7.090;2023-03-03T01:39:46;100783.72;;;-2.15;100.00
37764;BME280;23602;51.084;7.090;2023-03-03T01:42:12;100774.91;;;-2.14;100.00
37764;BME280;23602;51.084;7.090;2023-03-03T01:44:37;100780.25;;;-2.16;100.00
37764;BME280;23602;51.084;7.090;2023-03-03T01:47:10;100784.69;;;-2.16;100.00
37764;BME280;23602;51.084;7.090;2023-03-03T01:52:19;100783.13;;;-2.19;100.00
37764;BME280;23602;51.084;7.090;2023-03-03T01:54:53;100778.88;;;-2.09;100.00
37764;BME280;23602;51.084;7.090;2023-03-03T01:57:30;100782.25;;;-1.96;100.00
37764;BME280;23602;51.084;7.090;2023-03-03T01:59:57;100787.69;;;-1.86;100.00
37764;BME280;23602;51.084;7.090;2023-03-03T02:02:25;100804.34;;;-1.74;100.00
37764;BME280;23602;51.084;7.090;2023-03-03T02:04:51;100802.47;;;-1.61;100.00
37764;BME280;23602;51.084;7.090;2023-03-03T02:07:16;100799.97;;;-1.52;100.00
37764;BME280;23602;51.084;7.090;2023-03-03T02:12:19;100798.00;;;-1.26;100.00
37764;BME280;23602;51.084;7.090;2023-03-03T02:14:46;100786.00;;;-1.19;100.00
37764;BME280;23602;51.084;7.090;2023-03-03T02:17:12;100794.06;;;-1.09;100.00
37764;BME280;23602;51.084;7.090;2023-03-03T02:19:42;100790.91;;;-1.03;100.00
37764;BME280;23602;51.084;7.090;2023-03-03T02:22:11;100785.75;;;-0.94;100.00
37764;BME280;23602;51.084;7.090;2023-03-03T02:24:42;100791.28;;;-0.86;100.00
37764;BME280;23602;51.084;7.090;2023-03-03T02:27:09;100789.34;;;-0.84;100.00
37764;BME280;23602;51.084;7.090;2023-03-03T02:29:37;100788.63;;;-0.75;100.00
37764;BME280;23602;51.084;7.090;2023-03-03T02:32:03;100797.97;;;-0.71;100.00
37764;BME280;23602;51.084;7.090;2023-03-03T02:34:28;100803.50;;;-0.63;100.00
37764;BME280;23602;51.084;7.090;2023-03-03T02:36:53;100801.56;;;-0.60;100.00
37764;BME280;23602;51.084;7.090;2023-03-03T02:39:23;100810.69;;;-0.53;100.00
37764;BME280;23602;51.084;7.090;2023-03-03T02:44:21;100809.94;;;-0.44;100.00
37764;BME280;23602;51.084;7.090;2023-03-03T02:46:48;100821.59;;;-0.47;100.00
37764;BME280;23602;51.084;7.090;2023-03-03T02:49:17;100823.13;;;-0.44;100.00
37764;BME280;23602;51.084;7.090;2023-03-03T02:51:45;100818.81;;;-0.45;100.00
37764;BME280;23602;51.084;7.090;2023-03-03T02:54:11;100807.91;;;-0.41;100.00
37764;BME280;23602;51.084;7.090;2023-03-03T02:56:37;100811.63;;;-0.43;100.00
37764;BME280;23602;51.084;7.090;2023-03-03T02:59:03;100791.38;;;-0.54;100.00
37764;BME280;23602;51.084;7.090;2023-03-03T03:01:28;100804.56;;;-0.54;100.00
37764;BME280;23602;51.084;7.090;2023-03-03T03:03:56;100812.59;;;-0.55;100.00
37764;BME280;23602;51.084;7.090;2023-03-03T03:06:22;100811.63;;;-0.54;100.00
37764;BME280;23602;51.084;7.090;2023-03-03T03:08:47;100808.28;;;-0.56;100.00
37764;BME280;23602;51.084;7.090;2023-03-03T03:11:13;100805.88;;;-0.59;100.00
37764;BME280;23602;51.084;7.090;2023-03-03T03:13:40;100802.78;;;-0.65;100.00
37764;BME280;23602;51.084;7.090;2023-03-03T03:16:06;100805.03;;;-0.71;100.00
37764;BME280;23602;51.084;7.090;2023-03-03T03:18:31;100798.59;;;-0.67;100.00
37764;BME280;23602;51.084;7.090;2023-03-03T03:20:57;100798.69;;;-0.69;100.00
37764;BME280;23602;51.084;7.090;2023-03-03T03:23:29;100804.47;;;-0.75;100.00
37764;BME280;23602;51.084;7.090;2023-03-03T03:25:57;100816.34;;;-0.80;100.00
37764;BME280;23602;51.084;7.090;2023-03-03T03:28:22;100830.47;;;-0.81;100.00
37764;BME280;23602;51.084;7.090;2023-03-03T03:30:49;100836.13;;;-0.86;100.00
37764;BME280;23602;51.084;7.090;2023-03-03T03:33:15;100836.84;;;-0.84;100.00
37764;BME280;23602;51.084;7.090;2023-03-03T03:35:40;100836.13;;;-0.75;100.00
37764;BME280;23602;51.084;7.090;2023-03-03T03:38:09;100834.56;;;-0.77;100.00
37764;BME280;23602;51.084;7.090;2023-03-03T03:40:34;100834.94;;;-0.82;100.00
37764;BME280;23602;51.084;7.090;2023-03-03T03:43:00;100834.34;;;-0.85;100.00
37764;BME280;23602;51.084;7.090;2023-03-03T03:45:25;100829.91;;;-0.85;100.00
37764;BME280;23602;51.084;7.090;2023-03-03T03:47:50;100827.63;;;-0.89;100.00
37764;BME280;23602;51.084;7.090;2023-03-03T03:50:16;100823.53;;;-0.93;100.00
37764;BME280;23602;51.084;7.090;2023-03-03T03:52:41;100816.00;;;-0.98;100.00
37764;BME280;23602;51.084;7.090;2023-03-03T03:55:07;100819.47;;;-0.97;100.00
37764;BME280;23602;51.084;7.090;2023-03-03T03:57:33;100823.56;;;-1.04;100.00
37764;BME280;23602;51.084;7.090;2023-03-03T03:59:59;100818.38;;;-1.06;100.00
37764;BME280;23602;51.084;7.090;2023-03-03T04:02:24;100816.34;;;-0.91;100.00
37764;BME280;23602;51.084;7.090;2023-03-03T04:04:50;100821.41;;;-0.99;100.00
37764;BME280;23602;51.084;7.090;2023-03-03T04:07:15;100809.50;;;-1.05;100.00
37764;BME280;23602;51.084;7.090;2023-03-03T04:09:40;100822.31;;;-1.11;100.00
37764;BME280;23602;51.084;7.090;2023-03-03T04:12:06;100817.41;;;-1.16;100.00
37764;BME280;23602;51.084;7.090;2023-03-03T04:14:31;100818.50;;;-1.18;100.00
37764;BME280;23602;51.084;7.090;2023-03-03T04:16:57;100825.56;;;-1.19;100.00
37764;BME280;23602;51.084;7.090;2023-03-03T04:19:22;100821.13;;;-1.18;100.00
37764;BME280;23602;51.084;7.090;2023-03-03T04:21:48;100820.41;;;-1.20;100.00
37764;BME280;23602;51.084;7.090;2023-03-03T04:24:16;100817.63;;;-1.19;100.00
37764;BME280;23602;51.084;7.090;2023-03-03T04:26:43;100825.56;;;-1.19;100.00
37764;BME280;23602;51.084;7.090;2023-03-03T04:29:08;100831.06;;;-1.22;100.00
37764;BME280;23602;51.084;7.090;2023-03-03T04:31:34;100839.09;;;-1.23;100.00
37764;BME280;23602;51.084;7.090;2023-03-03T04:33:59;100849.63;;;-1.23;100.00
37764;BME280;23602;51.084;7.090;2023-03-03T04:36:25;100843.44;;;-1.22;100.00
37764;BME280;23602;51.084;7.090;2023-03-03T04:38:53;100847.63;;;-1.20;100.00
37764;BME280;23602;51.084;7.090;2023-03-03T04:41:18;100838.75;;;-1.08;100.00
37764;BME280;23602;51.084;7.090;2023-03-03T04:43:44;100858.66;;;-1.04;100.00
37764;BME280;23602;51.084;7.090;2023-03-03T04:46:09;100856.63;;;-1.00;100.00
37764;BME280;23602;51.084;7.090;2023-03-03T04:48:34;100859.75;;;-0.95;100.00
37764;BME280;23602;51.084;7.090;2023-03-03T04:51:03;100864.44;;;-0.88;100.00
37764;BME280;23602;51.084;7.090;2023-03-03T04:53:28;100861.31;;;-0.82;100.00
37764;BME280;23602;51.084;7.090;2023-03-03T04:55:54;100862.53;;;-0.75;100.00
37764;BME280;23602;51.084;7.090;2023-03-03T04:58:19;100863.84;;;-0.69;100.00
37764;BME280;23602;51.084;7.090;2023-03-03T05:00:46;100861.69;;;-0.64;100.00
37764;BME280;23602;51.084;7.090;2023-03-03T05:03:11;100862.75;;;-0.67;100.00
37764;BME280;23602;51.084;7.090;2023-03-03T05:05:37;100861.78;;;-0.66;100.00
37764;BME280;23602;51.084;7.090;2023-03-03T05:08:04;100856.50;;;-0.66;100.00
37764;BME280;23602;51.084;7.090;2023-03-03T05:10:29;100862.03;;;-0.57;100.00
37764;BME280;23602;51.084;7.090;2023-03-03T05:12:55;100862.50;;;-0.52;100.00
37764;BME280;23602;51.084;7.090;2023-03-03T05:15:20;100853.41;;;-0.48;100.00
37764;BME280;23602;51.084;7.090;2023-03-03T05:17:45;100851.47;;;-0.46;100.00
37764;BME280;23602;51.084;7.090;2023-03-03T05:20:11;100862.03;;;-0.46;100.00
37764;BME280;23602;51.084;7.090;2023-03-03T05:22:37;100860.34;;;-0.47;100.00
37764;BME280;23602;51.084;7.090;2023-03-03T05:25:03;100863.44;;;-0.42;100.00
37764;BME280;23602;51.084;7.090;2023-03-03T05:27:28;100866.94;;;-0.42;100.00
37764;BME280;23602;51.084;7.090;2023-03-03T05:29:56;100873.78;;;-0.39;100.00
37764;BME280;23602;51.084;7.090;2023-03-03T05:32:21;100876.88;;;-0.34;100.00
37764;BME280;23602;51.084;7.090;2023-03-03T05:34:49;100877.03;;;-0.36;100.00
37764;BME280;23602;51.084;7.090;2023-03-03T05:37:16;100870.91;;;-0.36;100.00
37764;BME280;23602;51.084;7.090;2023-03-03T05:39:41;100868.13;;;-0.35;100.00
37764;BME280;23602;51.084;7.090;2023-03-03T05:42:09;100874.00;;;-0.31;100.00
37764;BME280;23602;51.084;7.090;2023-03-03T05:44:35;100871.13;;;-0.28;100.00
37764;BME280;23602;51.084;7.090;2023-03-03T05:47:02;100859.72;;;-0.29;100.00
37764;BME280;23602;51.084;7.090;2023-03-03T05:49:28;100867.50;;;-0.27;100.00
37764;BME280;23602;51.084;7.090;2023-03-03T05:51:53;100873.50;;;-0.25;100.00
37764;BME280;23602;51.084;7.090;2023-03-03T05:54:19;100873.31;;;-0.33;100.00
37764;BME280;23602;51.084;7.090;2023-03-03T05:56:44;100881.31;;;-0.35;100.00
37764;BME280;23602;51.084;7.090;2023-03-03T05:59:10;100873.91;;;-0.41;100.00
37764;BME280;23602;51.084;7.090;2023-03-03T06:01:35;100873.31;;;-0.33;100.00
37764;BME280;23602;51.084;7.090;2023-03-03T06:04:00;100871.69;;;-0.25;100.00
37764;BME280;23602;51.084;7.090;2023-03-03T06:06:26;100862.00;;;-0.24;100.00
37764;BME280;23602;51.084;7.090;2023-03-03T06:08:52;100861.13;;;-0.25;100.00
37764;BME280;23602;51.084;7.090;2023-03-03T06:11:18;100864.50;;;-0.23;100.00
37764;BME280;23602;51.084;7.090;2023-03-03T06:13:43;100866.41;;;-0.25;100.00
37764;BME280;23602;51.084;7.090;2023-03-03T06:16:09;100866.31;;;-0.23;100.00
37764;BME280;23602;51.084;7.090;2023-03-03T06:18:34;100871.47;;;-0.22;100.00
37764;BME280;23602;51.084;7.090;2023-03-03T06:20:59;100870.38;;;-0.19;100.00
37764;BME280;23602;51.084;7.090;2023-03-03T06:23:25;100879.00;;;-0.17;100.00
37764;BME280;23602;51.084;7.090;2023-03-03T06:25:50;100881.91;;;-0.20;100.00
37764;BME280;23602;51.084;7.090;2023-03-03T06:28:16;100896.66;;;-0.18;100.00
37764;BME280;23602;51.084;7.090;2023-03-03T06:30:42;100886.94;;;-0.17;100.00
37764;BME280;23602;51.084;7.090;2023-03-03T06:33:07;100889.34;;;-0.14;100.00
37764;BME280;23602;51.084;7.090;2023-03-03T06:35:33;100891.13;;;-0.15;100.00
37764;BME280;23602;51.084;7.090;2023-03-03T06:37:58;100898.47;;;-0.18;100.00
37764;BME280;23602;51.084;7.090;2023-03-03T06:40:23;100892.22;;;-0.17;100.00
37764;BME280;23602;51.084;7.090;2023-03-03T06:42:49;100895.72;;;-0.17;100.00
37764;BME280;23602;51.084;7.090;2023-03-03T06:45:14;100892.34;;;-0.19;100.00
37764;BME280;23602;51.084;7.090;2023-03-03T06:47:39;100904.00;;;-0.21;100.00
37764;BME280;23602;51.084;7.090;2023-03-03T06:50:05;100914.34;;;-0.18;100.00
37764;BME280;23602;51.084;7.090;2023-03-03T06:52:30;100919.94;;;-0.12;100.00
37764;BME280;23602;51.084;7.090;2023-03-03T06:54:57;100919.84;;;-0.21;100.00
37764;BME280;23602;51.084;7.090;2023-03-03T06:57:31;100921.63;;;-0.11;100.00
37764;BME280;23602;51.084;7.090;2023-03-03T07:02:35;100924.63;;;-0.04;100.00
37764;BME280;23602;51.084;7.090;2023-03-03T07:05:00;100926.56;;;-0.06;100.00
37764;BME280;23602;51.084;7.090;2023-03-03T07:07:25;100927.88;;;-0.01;100.00
37764;BME280;23602;51.084;7.090;2023-03-03T07:09:52;100930.84;;;0.06;100.00
37764;BME280;23602;51.084;7.090;2023-03-03T07:12:19;100920.78;;;0.00;100.00
37764;BME280;23602;51.084;7.090;2023-03-03T07:14:47;100923.75;;;0.07;100.00
37764;BME280;23602;51.084;7.090;2023-03-03T07:17:19;100929.13;;;0.16;100.00
37764;BME280;23602;51.084;7.090;2023-03-03T07:19:45;100927.19;;;0.18;100.00
37764;BME280;23602;51.084;7.090;2023-03-03T07:24:35;100927.88;;;0.31;100.00
37764;BME280;23602;51.084;7.090;2023-03-03T07:29:29;100931.28;;;0.22;100.00
37764;BME280;23602;51.084;7.090;2023-03-03T07:31:55;100932.00;;;0.24;100.00
37764;BME280;23602;51.084;7.090;2023-03-03T07:36:54;100936.53;;;0.33;100.00
37764;BME280;23602;51.084;7.090;2023-03-03T07:39:35;100925.13;;;0.33;100.00
37764;BME280;23602;51.084;7.090;2023-03-03T07:42:14;100921.50;;;0.45;100.00
37764;BME280;23602;51.084;7.090;2023-03-03T07:44:41;100930.19;;;0.56;100.00
37764;BME280;23602;51.084;7.090;2023-03-03T07:49:52;100929.69;;;0.62;100.00
37764;BME280;23602;51.084;7.090;2023-03-03T07:54:46;100925.91;;;0.55;100.00
37764;BME280;23602;51.084;7.090;2023-03-03T07:59:53;100933.38;;;0.50;100.00
37764;BME280;23602;51.084;7.090;2023-03-03T08:04:47;100938.41;;;0.74;100.00
37764;BME280;23602;51.084;7.090;2023-03-03T08:07:17;100931.97;;;0.88;100.00
37764;BME280;23602;51.084;7.090;2023-03-03T08:09:49;100929.53;;;0.96;100.00
37764;BME280;23602;51.084;7.090;2023-03-03T08:14:44;100943.81;;;0.84;100.00
37764;BME280;23602;51.084;7.090;2023-03-03T08:17:13;100937.72;;;0.93;100.00
37764;BME280;23602;51.084;7.090;2023-03-03T08:19:40;100939.59;;;1.02;100.00
37764;BME280;23602;51.084;7.090;2023-03-03T08:22:11;100939.78;;;1.10;100.00
37764;BME280;23602;51.084;7.090;2023-03-03T08:24:39;100945.88;;;1.21;100.00
37764;BME280;23602;51.084;7.090;2023-03-03T08:27:05;100942.22;;;1.22;100.00
37764;BME280;23602;51.084;7.090;2023-03-03T08:29:30;100944.69;;;1.14;100.00
37764;BME280;23602;51.084;7.090;2023-03-03T08:31:56;100947.41;;;1.24;100.00
37764;BME280;23602;51.084;7.090;2023-03-03T08:34:30;100951.66;;;1.36;100.00
37764;BME280;23602;51.084;7.090;2023-03-03T08:36:55;100951.44;;;1.49;100.00
37764;BME280;23602;51.084;7.090;2023-03-03T08:39:22;100955.81;;;1.59;100.00
37764;BME280;23602;51.084;7.090;2023-03-03T08:41:47;100957.59;;;1.49;100.00
37764;BME280;23602;51.084;7.090;2023-03-03T08:44:13;100953.56;;;1.55;100.00
37764;BME280;23602;51.084;7.090;2023-03-03T08:46:38;100955.56;;;1.62;100.00
37764;BME280;23602;51.084;7.090;2023-03-03T08:49:03;100959.03;;;1.63;100.00
37764;BME280;23602;51.084;7.090;2023-03-03T08:51:29;100958.38;;;1.70;100.00
37764;BME280;23602;51.084;7.090;2023-03-03T08:53:54;100954.75;;;1.71;100.00
37764;BME280;23602;51.084;7.090;2023-03-03T08:56:20;100954.78;;;1.81;100.00
37764;BME280;23602;51.084;7.090;2023-03-03T08:58:45;100958.25;;;1.72;100.00
37764;BME280;23602;51.084;7.090;2023-03-03T09:01:12;100959.53;;;1.77;100.00
37764;BME280;23602;51.084;7.090;2023-03-03T09:03:38;100955.34;;;1.75;100.00
37764;BME280;23602;51.084;7.090;2023-03-03T09:06:03;100954.84;;;1.90;100.00
37764;BME280;23602;51.084;7.090;2023-03-03T09:08:29;100956.13;;;1.66;100.00
37764;BME280;23602;51.084;7.090;2023-03-03T09:10:54;100968.53;;;1.65;100.00
37764;BME280;23602;51.084;7.090;2023-03-03T09:13:19;100957.06;;;1.85;100.00
37764;BME280;23602;51.084;7.090;2023-03-03T09:15:45;100961.19;;;1.78;100.00
37764;BME280;23602;51.084;7.090;2023-03-03T09:18:17;100965.97;;;1.84;100.00
37764;BME280;23602;51.084;7.090;2023-03-03T09:20:47;100957.25;;;2.03;100.00
37764;BME280;23602;51.084;7.090;2023-03-03T09:25:48;100975.41;;;2.08;100.00
37764;BME280;23602;51.084;7.090;2023-03-03T09:28:22;100964.66;;;2.19;100.00
37764;BME280;23602;51.084;7.090;2023-03-03T09:30:48;100972.25;;;2.33;100.00
37764;BME280;23602;51.084;7.090;2023-03-03T09:33:24;100966.16;;;2.51;100.00
37764;BME280;23602;51.084;7.090;2023-03-03T09:35:53;100978.16;;;2.46;100.00
37764;BME280;23602;51.084;7.090;2023-03-03T09:48:40;100998.53;;;2.55;100.00
37764;BME280;23602;51.084;7.090;2023-03-03T09:56:05;100989.97;;;2.32;100.00
37764;BME280;23602;51.084;7.090;2023-03-03T09:58:43;100992.09;;;2.48;100.00
37764;BME280;23602;51.084;7.090;2023-03-03T10:19:39;101007.22;;;3.24;100.00
37764;BME280;23602;51.084;7.090;2023-03-03T10:22:15;100998.56;;;3.22;100.00
37764;BME280;23602;51.084;7.090;2023-03-03T10:27:29;100998.25;;;3.15;100.00
37764;BME280;23602;51.084;7.090;2023-03-03T10:30:10;101002.91;;;2.94;100.00
37764;BME280;23602;51.084;7.090;2023-03-03T10:32:42;100999.13;;;3.06;100.00
37764;BME280;23602;51.084;7.090;2023-03-03T10:35:24;100990.44;;;3.14;100.00
37764;BME280;23602;51.084;7.090;2023-03-03T10:43:48;100984.44;;;3.22;100.00
37764;BME280;23602;51.084;7.090;2023-03-03T10:46:14;100981.44;;;3.44;100.00
37764;BME280;23602;51.084;7.090;2023-03-03T10:51:32;100998.75;;;3.57;100.00
37764;BME280;23602;51.084;7.090;2023-03-03T10:57:04;101012.22;;;3.56;100.00
37764;BME280;23602;51.084;7.090;2023-03-03T10:59:45;101006.31;;;3.62;100.00
37764;BME280;23602;51.084;7.090;2023-03-03T11:05:04;101011.69;;;3.79;100.00
37764;BME280;23602;51.084;7.090;2023-03-03T11:07:38;101010.94;;;3.97;100.00
37764;BME280;23602;51.084;7.090;2023-03-03T11:15:12;101003.44;;;3.82;100.00
37764;BME280;23602;51.084;7.090;2023-03-03T11:20:19;101001.34;;;3.86;100.00
37764;BME280;23602;51.084;7.090;2023-03-03T11:25:48;100996.16;;;3.84;100.00
37764;BME280;23602;51.084;7.090;2023-03-03T11:31:05;100990.59;;;4.05;100.00
37764;BME280;23602;51.084;7.090;2023-03-03T11:41:38;100983.78;;;4.47;100.00
37764;BME280;23602;51.084;7.090;2023-03-03T11:47:03;100981.97;;;4.83;100.00
37764;BME280;23602;51.084;7.090;2023-03-03T11:49:42;100969.50;;;4.84;100.00
37764;BME280;23602;51.084;7.090;2023-03-03T11:55:02;100964.41;;;5.08;100.00
37764;BME280;23602;51.084;7.090;2023-03-03T11:57:30;100964.41;;;5.08;100.00
37764;BME280;23602;51.084;7.090;2023-03-03T12:05:37;100963.34;;;4.83;100.00
37764;BME280;23602;51.084;7.090;2023-03-03T12:15:48;100955.97;;;4.95;100.00
37764;BME280;23602;51.084;7.090;2023-03-03T12:26:01;100945.31;;;4.95;100.00
37764;BME280;23602;51.084;7.090;2023-03-03T12:28:48;100927.78;;;5.10;100.00
37764;BME280;23602;51.084;7.090;2023-03-03T12:31:23;100932.53;;;5.24;100.00
37764;BME280;23602;51.084;7.090;2023-03-03T12:33:57;100927.19;;;5.16;100.00
37764;BME280;23602;51.084;7.090;2023-03-03T12:46:27;100918.53;;;5.73;100.00
37764;BME280;23602;51.084;7.090;2023-03-03T12:48:54;100920.16;;;5.92;100.00
37764;BME280;23602;51.084;7.090;2023-03-03T12:51:24;100924.22;;;5.79;100.00
37764;BME280;23602;51.084;7.090;2023-03-03T12:54:08;100909.13;;;5.61;100.00
37764;BME280;23602;51.084;7.090;2023-03-03T13:04:34;100914.00;;;6.00;100.00
37764;BME280;23602;51.084;7.090;2023-03-03T13:12:02;100916.41;;;6.27;100.00
37764;BME280;23602;51.084;7.090;2023-03-03T13:19:25;100915.84;;;5.73;100.00
37764;BME280;23602;51.084;7.090;2023-03-03T13:29:29;100916.16;;;5.96;100.00
37764;BME280;23602;51.084;7.090;2023-03-03T13:32:02;100902.19;;;6.02;100.00
37764;BME280;23602;51.084;7.090;2023-03-03T13:34:50;100913.31;;;5.98;100.00
37764;BME280;23602;51.084;7.090;2023-03-03T13:43:11;100910.19;;;5.17;100.00
37764;BME280;23602;51.084;7.090;2023-03-03T13:45:33;100904.63;;;5.28;100.00
37764;BME280;23602;51.084;7.090;2023-03-03T13:48:04;100901.03;;;5.45;100.00
37764;BME280;23602;51.084;7.090;2023-03-03T13:50:46;100903.63;;;5.63;100.00
37764;BME280;23602;51.084;7.090;2023-03-03T13:55:48;100893.31;;;5.94;100.00
37764;BME280;23602;51.084;7.090;2023-03-03T14:00:56;100894.97;;;6.03;100.00
37764;BME280;23602;51.084;7.090;2023-03-03T14:03:34;100893.53;;;5.83;100.00
37764;BME280;23602;51.084;7.090;2023-03-03T14:06:03;100895.00;;;5.69;100.00
37764;BME280;23602;51.084;7.090;2023-03-03T14:08:54;100899.28;;;5.54;100.00
37764;BME280;23602;51.084;7.090;2023-03-03T14:14:31;100898.38;;;5.20;100.00
37764;BME280;23602;51.084;7.090;2023-03-03T14:17:02;100894.00;;;5.10;100.00
37764;BME280;23602;51.084;7.090;2023-03-03T14:19:33;100894.13;;;5.09;100.00
37764;BME280;23602;51.084;7.090;2023-03-03T14:22:05;100895.22;;;5.16;100.00
37764;BME280;23602;51.084;7.090;2023-03-03T14:24:31;100887.47;;;5.31;100.00
37764;BME280;23602;51.084;7.090;2023-03-03T14:26:57;100884.88;;;5.39;100.00
37764;BME280;23602;51.084;7.090;2023-03-03T14:31:51;100878.75;;;5.46;100.00
37764;BME280;23602;51.084;7.090;2023-03-03T14:34:34;100870.75;;;5.46;100.00
37764;BME280;23602;51.084;7.090;2023-03-03T14:39:47;100865.91;;;5.50;100.00
37764;BME280;23602;51.084;7.090;2023-03-03T14:45:00;100867.94;;;5.22;100.00
37764;BME280;23602;51.084;7.090;2023-03-03T14:47:28;100860.09;;;5.21;100.00
37764;BME280;23602;51.084;7.090;2023-03-03T14:49:55;100862.28;;;5.25;100.00
37764;BME280;23602;51.084;7.090;2023-03-03T14:52:28;100861.31;;;5.26;100.00
37764;BME280;23602;51.084;7.090;2023-03-03T14:54:55;100862.22;;;5.17;100.00
37764;BME280;23602;51.084;7.090;2023-03-03T14:57:22;100860.03;;;5.13;100.00
37764;BME280;23602;51.084;7.090;2023-03-03T15:00:08;100859.56;;;5.17;100.00
37764;BME280;23602;51.084;7.090;2023-03-03T15:07:42;100847.25;;;5.16;100.00
37764;BME280;23602;51.084;7.090;2023-03-03T15:10:08;100862.03;;;5.10;100.00
37764;BME280;23602;51.084;7.090;2023-03-03T15:12:36;100853.81;;;5.04;100.00
37764;BME280;23602;51.084;7.090;2023-03-03T15:38:49;100854.84;;;4.60;100.00
37764;BME280;23602;51.084;7.090;2023-03-03T15:51:37;100854.53;;;4.27;100.00
37764;BME280;23602;51.084;7.090;2023-03-03T15:58:56;100854.97;;;4.05;100.00
37764;BME280;23602;51.084;7.090;2023-03-03T16:03:58;100859.22;;;3.98;100.00
37764;BME280;23602;51.084;7.090;2023-03-03T16:17:09;100860.63;;;3.75;100.00
37764;BME280;23602;51.084;7.090;2023-03-03T16:29:51;100867.09;;;3.36;100.00
37764;BME280;23602;51.084;7.090;2023-03-03T16:32:36;100871.19;;;3.30;100.00
37764;BME280;23602;51.084;7.090;2023-03-03T16:40:18;100883.66;;;3.10;100.00
37764;BME280;23602;51.084;7.090;2023-03-03T16:42:47;100884.38;;;3.03;100.00
37764;BME280;23602;51.084;7.090;2023-03-03T16:45:21;100883.72;;;2.91;100.00
37764;BME280;23602;51.084;7.090;2023-03-03T16:48:02;100896.00;;;2.83;100.00
37764;BME280;23602;51.084;7.090;2023-03-03T16:53:00;100898.28;;;2.59;100.00
37764;BME280;23602;51.084;7.090;2023-03-03T16:55:52;100900.78;;;2.50;100.00
37764;BME280;23602;51.084;7.090;2023-03-03T17:05:56;100914.66;;;1.85;100.00
37764;BME280;23602;51.084;7.090;2023-03-03T17:08:43;100915.72;;;1.73;100.00
37764;BME280;23602;51.084;7.090;2023-03-03T17:11:20;100926.72;;;1.39;100.00
37764;BME280;23602;51.084;7.090;2023-03-03T17:13:53;100926.63;;;1.19;100.00
37764;BME280;23602;51.084;7.090;2023-03-03T17:32:10;100952.66;;;0.30;100.00
37764;BME280;23602;51.084;7.090;2023-03-03T17:37:31;100961.69;;;0.17;100.00
37764;BME280;23602;51.084;7.090;2023-03-03T17:45:13;100971.94;;;-0.01;100.00
37764;BME280;23602;51.084;7.090;2023-03-03T17:47:45;100970.25;;;-0.02;100.00
37764;BME280;23602;51.084;7.090;2023-03-03T17:58:50;100975.06;;;-0.07;100.00
37764;BME280;23602;51.084;7.090;2023-03-03T18:03:59;100986.13;;;-0.24;100.00
37764;BME280;23602;51.084;7.090;2023-03-03T18:06:31;100988.03;;;-0.37;100.00
37764;BME280;23602;51.084;7.090;2023-03-03T18:19:48;101001.59;;;-0.42;100.00